Anaya — WDE5689 — position and weather

sailwx.info

Track history (hours):
 
Tides and Currents Weather Stations Pressure Air Temp Water Temp Dewpoint Dewpoint Depression Visibility Wind Speed Wind Dir Waves Ship Positions

Anaya

Owner: MKL Holdings, LLC, Bellevue, WA. More information available from US FCC via Universal Licensing System and Coast Guard Vessel Documentation Center.

Last reported at 2015-Jun-17 18:33 UTC. Time now 2015-Jul-03 12:26 UTC.
Position N 49°41' W 124°19'.
Warning: this ship's position is 15 days out of date.

; draft 2 m.

Type: Pleasure craft. MMSI: 367370340.

Date/timePositionNaut miles runAvg speedWind from/ knotsBaromVisibWave heightAir tempDewpointWater temp
2015-Jun-17 18:33N 49°41' W 124°19'3311.0
2015-Jun-17 15:30N 49°12' W 123°55'2 0.2
2015-Jun-17 03:33N 49°10' W 123°56'0 0.0
2015-Jun-17 01:29N 49°10' W 123°56'16 8.0
2015-Jun-16 23:30N 49°00' W 123°37'1312.9
2015-Jun-16 22:32N 48°52' W 123°24'9 9.3
2015-Jun-16 21:32N 48°45' W 123°14'6 6.0
2015-Jun-16 20:34N 48°39' W 123°12'3 0.1
2015-Jun-14 19:21N 48°37' W 123°09'0 0.0
2015-Jun-14 18:33N 48°37' W 123°09'0 0.0
2015-Jun-14 17:33N 48°37' W 123°09'0 0.0
2015-Jun-14 16:33N 48°37' W 123°09'0 0.0
2015-Jun-14 15:33N 48°37' W 123°09'0 0.0
2015-Jun-14 14:33N 48°37' W 123°09'0 0.0
2015-Jun-14 13:33N 48°37' W 123°09'0 0.0
2015-Jun-14 12:33N 48°37' W 123°09'0 0.0
2015-Jun-14 11:33N 48°37' W 123°09'0 0.0
2015-Jun-14 10:33N 48°37' W 123°09'0 0.0
2015-Jun-14 09:33N 48°37' W 123°09'0 0.0
2015-Jun-14 08:33N 48°37' W 123°09'0 0.0
2015-Jun-14 07:33N 48°37' W 123°09'0 0.0
2015-Jun-14 06:33N 48°37' W 123°09'0 0.0
2015-Jun-14 05:33N 48°37' W 123°09'0 0.0
2015-Jun-14 04:33N 48°37' W 123°09'0 0.0
2015-Jun-14 03:33N 48°37' W 123°09'0 0.0
2015-Jun-14 02:33N 48°37' W 123°09'0 0.0
2015-Jun-14 01:33N 48°37' W 123°09'0 0.0
2015-Jun-14 00:33N 48°37' W 123°09'0 0.0
2015-Jun-13 23:33N 48°37' W 123°09'0 0.0
2015-Jun-13 22:33N 48°37' W 123°09'0 0.0
2015-Jun-13 21:33N 48°37' W 123°09'0 0.0
2015-Jun-13 20:30N 48°37' W 123°09'0 0.0
2015-Jun-13 19:33N 48°37' W 123°09'0 0.0
2015-Jun-13 18:33N 48°37' W 123°09'0 0.0
2015-Jun-13 17:32N 48°37' W 123°09'0 0.0
2015-Jun-13 16:33N 48°37' W 123°09'0 0.0
2015-Jun-13 15:33N 48°37' W 123°09'0 0.0
2015-Jun-13 14:33N 48°37' W 123°09'0 0.0
2015-Jun-13 13:33N 48°37' W 123°09'0 0.0
2015-Jun-13 12:33N 48°37' W 123°09'0 0.0
2015-Jun-13 11:33N 48°37' W 123°09'0 0.0
2015-Jun-13 10:33N 48°37' W 123°09'0 0.0
2015-Jun-13 09:33N 48°37' W 123°09'0 0.0
2015-Jun-13 08:33N 48°37' W 123°09'0 0.0
2015-Jun-13 07:33N 48°37' W 123°09'0 0.0
2015-Jun-13 06:33N 48°37' W 123°09'0 0.0
2015-Jun-13 05:33N 48°37' W 123°09'0 0.0
2015-Jun-13 04:33N 48°37' W 123°09'0 0.0
2015-Jun-13 03:33N 48°37' W 123°09'0 0.0
2015-Jun-13 02:33N 48°37' W 123°09'0 0.0
2015-Jun-13 01:33N 48°37' W 123°09'0 0.0
2015-Jun-13 00:33N 48°37' W 123°09'0 0.0
2015-Jun-12 23:33N 48°37' W 123°09'0 0.0
2015-Jun-12 22:23N 48°37' W 123°09'0 0.0
2015-Jun-12 21:33N 48°37' W 123°09'0 0.0
2015-Jun-12 20:33N 48°37' W 123°09'0 0.0
2015-Jun-12 19:33N 48°37' W 123°09'0 0.0
2015-Jun-12 18:33N 48°37' W 123°09'0 0.0
2015-Jun-12 17:33N 48°37' W 123°09'0 0.0
2015-Jun-12 16:33N 48°37' W 123°09'0 0.0
2015-Jun-12 15:33N 48°37' W 123°09'0 0.0
2015-Jun-12 15:01N 48°37' W 123°09'0 0.0
2015-Jun-12 14:33N 48°37' W 123°09'0 0.0
2015-Jun-12 13:33N 48°37' W 123°09'0 0.0
2015-Jun-12 12:33N 48°37' W 123°09'0 0.0
2015-Jun-12 11:33N 48°37' W 123°09'0 0.0
2015-Jun-12 11:05N 48°37' W 123°09'0 0.0
2015-Jun-12 10:33N 48°37' W 123°09'0 0.0
2015-Jun-12 09:33N 48°37' W 123°09'0 0.0
2015-Jun-12 08:33N 48°37' W 123°09'0 0.0
2015-Jun-12 07:33N 48°37' W 123°09'0 0.0
2015-Jun-12 06:33N 48°37' W 123°09'0 0.0
2015-Jun-12 05:33N 48°37' W 123°09'0 0.0
2015-Jun-12 04:33N 48°37' W 123°09'0 0.0
2015-Jun-12 04:23N 48°37' W 123°09'0 0.0
2015-Jun-12 03:33N 48°37' W 123°09'0 0.0
2015-Jun-12 02:33N 48°37' W 123°09'0 0.0
2015-Jun-12 01:33N 48°37' W 123°09'0 0.0
2015-Jun-12 00:33N 48°37' W 123°09'0 0.0
2015-Jun-11 23:33N 48°37' W 123°09'0 0.0
2015-Jun-11 23:12N 48°37' W 123°09'0 0.0
2015-Jun-11 22:33N 48°37' W 123°09'0 0.0
2015-Jun-11 21:33N 48°37' W 123°09'0 0.0
2015-Jun-11 20:33N 48°37' W 123°09'0 0.0
2015-Jun-11 19:33N 48°37' W 123°09'0 0.0
2015-Jun-11 18:30N 48°37' W 123°09'0 0.0
2015-Jun-11 17:33N 48°37' W 123°09'0 0.0
2015-Jun-11 16:33N 48°37' W 123°09'0 0.0
2015-Jun-11 15:33N 48°37' W 123°09'0 0.0
2015-Jun-11 14:33N 48°37' W 123°09'0 0.0
2015-Jun-11 13:33N 48°37' W 123°09'0 0.0
2015-Jun-11 12:33N 48°37' W 123°09'0 0.0
2015-Jun-11 11:33N 48°37' W 123°09'0 0.0
2015-Jun-11 10:33N 48°37' W 123°09'0 0.0
2015-Jun-11 09:33N 48°37' W 123°09'0 0.0
2015-Jun-11 08:33N 48°37' W 123°09'0 0.0
2015-Jun-11 07:33N 48°37' W 123°09'0 0.0
2015-Jun-11 06:33N 48°37' W 123°09'0 0.0
2015-Jun-11 05:33N 48°37' W 123°09'0 0.0
2015-Jun-11 04:33N 48°37' W 123°09'0 0.0
2015-Jun-11 03:33N 48°37' W 123°09'0 0.0
2015-Jun-11 02:33N 48°37' W 123°09'0 0.0
2015-Jun-11 01:33N 48°37' W 123°09'0 0.0
2015-Jun-11 00:33N 48°37' W 123°09'0 0.0
2015-Jun-10 23:33N 48°37' W 123°09'0 0.0
2015-Jun-10 22:33N 48°37' W 123°09'  
2015-Jun-07 19:33N 48°37' W 123°09'0 0.0
2015-Jun-07 18:33N 48°37' W 123°09'  
Track history (hours):
 
Tides and Currents Weather Stations Pressure Air Temp Water Temp Dewpoint Dewpoint Depression Visibility Wind Speed Wind Dir Waves Ship Positions

Anaya

Owner: MKL Holdings, LLC, Bellevue, WA. More information available from US FCC via Universal Licensing System and Coast Guard Vessel Documentation Center.

Last reported at 2015-Jun-17 18:33 UTC. Time now 2015-Jul-03 12:26 UTC.
Position N 49°41' W 124°19'.
Warning: this ship's position is 15 days out of date.

; draft 2 m.

Type: Pleasure craft. MMSI: 367370340.

Date/timePositionNaut miles runAvg speedWind from/ knotsBaromVisibWave heightAir tempDewpointWater temp
2015-Jun-17 18:33N 49°41' W 124°19'3311.0
2015-Jun-17 15:30N 49°12' W 123°55'2 0.2
2015-Jun-17 03:33N 49°10' W 123°56'0 0.0
2015-Jun-17 01:29N 49°10' W 123°56'16 8.0
2015-Jun-16 23:30N 49°00' W 123°37'1312.9
2015-Jun-16 22:32N 48°52' W 123°24'9 9.3
2015-Jun-16 21:32N 48°45' W 123°14'6 6.0
2015-Jun-16 20:34N 48°39' W 123°12'3 0.1
2015-Jun-14 19:21N 48°37' W 123°09'0 0.0
2015-Jun-14 18:33N 48°37' W 123°09'0 0.0
2015-Jun-14 17:33N 48°37' W 123°09'0 0.0
2015-Jun-14 16:33N 48°37' W 123°09'0 0.0
2015-Jun-14 15:33N 48°37' W 123°09'0 0.0
2015-Jun-14 14:33N 48°37' W 123°09'0 0.0
2015-Jun-14 13:33N 48°37' W 123°09'0 0.0
2015-Jun-14 12:33N 48°37' W 123°09'0 0.0
2015-Jun-14 11:33N 48°37' W 123°09'0 0.0
2015-Jun-14 10:33N 48°37' W 123°09'0 0.0
2015-Jun-14 09:33N 48°37' W 123°09'0 0.0
2015-Jun-14 08:33N 48°37' W 123°09'0 0.0
2015-Jun-14 07:33N 48°37' W 123°09'0 0.0
2015-Jun-14 06:33N 48°37' W 123°09'0 0.0
2015-Jun-14 05:33N 48°37' W 123°09'0 0.0
2015-Jun-14 04:33N 48°37' W 123°09'0 0.0
2015-Jun-14 03:33N 48°37' W 123°09'0 0.0
2015-Jun-14 02:33N 48°37' W 123°09'0 0.0
2015-Jun-14 01:33N 48°37' W 123°09'0 0.0
2015-Jun-14 00:33N 48°37' W 123°09'0 0.0
2015-Jun-13 23:33N 48°37' W 123°09'0 0.0
2015-Jun-13 22:33N 48°37' W 123°09'0 0.0
2015-Jun-13 21:33N 48°37' W 123°09'0 0.0
2015-Jun-13 20:30N 48°37' W 123°09'0 0.0
2015-Jun-13 19:33N 48°37' W 123°09'0 0.0
2015-Jun-13 18:33N 48°37' W 123°09'0 0.0
2015-Jun-13 17:32N 48°37' W 123°09'0 0.0
2015-Jun-13 16:33N 48°37' W 123°09'0 0.0
2015-Jun-13 15:33N 48°37' W 123°09'0 0.0
2015-Jun-13 14:33N 48°37' W 123°09'0 0.0
2015-Jun-13 13:33N 48°37' W 123°09'0 0.0
2015-Jun-13 12:33N 48°37' W 123°09'0 0.0
2015-Jun-13 11:33N 48°37' W 123°09'0 0.0
2015-Jun-13 10:33N 48°37' W 123°09'0 0.0
2015-Jun-13 09:33N 48°37' W 123°09'0 0.0
2015-Jun-13 08:33N 48°37' W 123°09'0 0.0
2015-Jun-13 07:33N 48°37' W 123°09'0 0.0
2015-Jun-13 06:33N 48°37' W 123°09'0 0.0
2015-Jun-13 05:33N 48°37' W 123°09'0 0.0
2015-Jun-13 04:33N 48°37' W 123°09'0 0.0
2015-Jun-13 03:33N 48°37' W 123°09'0 0.0
2015-Jun-13 02:33N 48°37' W 123°09'0 0.0
2015-Jun-13 01:33N 48°37' W 123°09'0 0.0
2015-Jun-13 00:33N 48°37' W 123°09'0 0.0
2015-Jun-12 23:33N 48°37' W 123°09'0 0.0
2015-Jun-12 22:23N 48°37' W 123°09'0 0.0
2015-Jun-12 21:33N 48°37' W 123°09'0 0.0
2015-Jun-12 20:33N 48°37' W 123°09'0 0.0
2015-Jun-12 19:33N 48°37' W 123°09'0 0.0
2015-Jun-12 18:33N 48°37' W 123°09'0 0.0
2015-Jun-12 17:33N 48°37' W 123°09'0 0.0
2015-Jun-12 16:33N 48°37' W 123°09'0 0.0
2015-Jun-12 15:33N 48°37' W 123°09'0 0.0
2015-Jun-12 15:01N 48°37' W 123°09'0 0.0
2015-Jun-12 14:33N 48°37' W 123°09'0 0.0
2015-Jun-12 13:33N 48°37' W 123°09'0 0.0
2015-Jun-12 12:33N 48°37' W 123°09'0 0.0
2015-Jun-12 11:33N 48°37' W 123°09'0 0.0
2015-Jun-12 11:05N 48°37' W 123°09'0 0.0
2015-Jun-12 10:33N 48°37' W 123°09'0 0.0
2015-Jun-12 09:33N 48°37' W 123°09'0 0.0
2015-Jun-12 08:33N 48°37' W 123°09'0 0.0
2015-Jun-12 07:33N 48°37' W 123°09'0 0.0
2015-Jun-12 06:33N 48°37' W 123°09'0 0.0
2015-Jun-12 05:33N 48°37' W 123°09'0 0.0
2015-Jun-12 04:33N 48°37' W 123°09'0 0.0
2015-Jun-12 04:23N 48°37' W 123°09'0 0.0
2015-Jun-12 03:33N 48°37' W 123°09'0 0.0
2015-Jun-12 02:33N 48°37' W 123°09'0 0.0
2015-Jun-12 01:33N 48°37' W 123°09'0 0.0
2015-Jun-12 00:33N 48°37' W 123°09'0 0.0
2015-Jun-11 23:33N 48°37' W 123°09'0 0.0
2015-Jun-11 23:12N 48°37' W 123°09'0 0.0
2015-Jun-11 22:33N 48°37' W 123°09'0 0.0
2015-Jun-11 21:33N 48°37' W 123°09'0 0.0
2015-Jun-11 20:33N 48°37' W 123°09'0 0.0
2015-Jun-11 19:33N 48°37' W 123°09'0 0.0
2015-Jun-11 18:30N 48°37' W 123°09'0 0.0
2015-Jun-11 17:33N 48°37' W 123°09'0 0.0
2015-Jun-11 16:33N 48°37' W 123°09'0 0.0
2015-Jun-11 15:33N 48°37' W 123°09'0 0.0
2015-Jun-11 14:33N 48°37' W 123°09'0 0.0
2015-Jun-11 13:33N 48°37' W 123°09'0 0.0
2015-Jun-11 12:33N 48°37' W 123°09'0 0.0
2015-Jun-11 11:33N 48°37' W 123°09'0 0.0
2015-Jun-11 10:33N 48°37' W 123°09'0 0.0
2015-Jun-11 09:33N 48°37' W 123°09'0 0.0
2015-Jun-11 08:33N 48°37' W 123°09'0 0.0
2015-Jun-11 07:33N 48°37' W 123°09'0 0.0
2015-Jun-11 06:33N 48°37' W 123°09'0 0.0
2015-Jun-11 05:33N 48°37' W 123°09'0 0.0
2015-Jun-11 04:33N 48°37' W 123°09'0 0.0
2015-Jun-11 03:33N 48°37' W 123°09'0 0.0
2015-Jun-11 02:33N 48°37' W 123°09'0 0.0
2015-Jun-11 01:33N 48°37' W 123°09'0 0.0
2015-Jun-11 00:33N 48°37' W 123°09'0 0.0
2015-Jun-10 23:33N 48°37' W 123°09'0 0.0
2015-Jun-10 22:33N 48°37' W 123°09'  
2015-Jun-07 19:33N 48°37' W 123°09'0 0.0
2015-Jun-07 18:33N 48°37' W 123°09'  

Dump ship's entire track history